createdAt,value
2023-04-10T00:01:21.297Z,0
2023-04-10T00:03:18.166Z,0
2023-04-10T00:05:15.211Z,0
2023-04-10T00:07:14.041Z,0
2023-04-10T00:09:21.296Z,0
2023-04-10T00:11:14.168Z,0
2023-04-10T00:13:15.022Z,0
2023-04-10T00:15:14.777Z,0
2023-04-10T00:17:14.041Z,0
2023-04-10T00:19:17.316Z,0
2023-04-10T00:21:14.941Z,0
2023-04-10T00:23:14.957Z,0
2023-04-10T00:27:14.832Z,0
2023-04-10T00:29:15.098Z,0
2023-04-10T00:31:15.014Z,0
2023-04-10T00:33:14.666Z,0
2023-04-10T00:35:15.863Z,0
2023-04-10T00:37:14.643Z,0
2023-04-10T00:39:21.413Z,0
2023-04-10T00:41:21.218Z,0
2023-04-10T00:43:14.767Z,0
2023-04-10T00:45:15.007Z,0
2023-04-10T00:47:14.087Z,0
2023-04-10T00:49:14.069Z,0
2023-04-10T00:51:14.541Z,0
2023-04-10T00:53:14.632Z,0
2023-04-10T00:57:14.094Z,0
2023-04-10T00:59:21.323Z,0
2023-04-10T01:01:14.836Z,0
2023-04-10T01:03:14.686Z,0
2023-04-10T01:05:18.312Z,0
2023-04-10T01:07:14.619Z,0
2023-04-10T01:11:14.477Z,0
2023-04-10T01:13:14.280Z,0
2023-04-10T01:17:17.699Z,0
2023-04-10T01:19:14.590Z,0
2023-04-10T01:21:14.579Z,0
2023-04-10T01:23:21.360Z,0
2023-04-10T01:25:15.132Z,0
2023-04-10T01:27:14.328Z,0
2023-04-10T01:29:14.149Z,0
2023-04-10T01:31:14.820Z,0
2023-04-10T01:33:17.994Z,0
2023-04-10T01:35:21.121Z,0
2023-04-10T01:37:14.071Z,0
2023-04-10T01:39:14.569Z,0
2023-04-10T01:41:14.743Z,0
2023-04-10T01:43:14.705Z,0
2023-04-10T01:45:14.313Z,0
2023-04-10T01:47:20.652Z,0
2023-04-10T01:49:18.145Z,0
2023-04-10T01:51:14.922Z,0
2023-04-10T01:53:18.043Z,0
2023-04-10T01:55:14.751Z,0
2023-04-10T01:57:14.796Z,0
2023-04-10T01:59:14.524Z,0
2023-04-10T02:01:26.568Z,0
2023-04-10T02:03:15.032Z,0
2023-04-10T02:05:14.734Z,0
2023-04-10T02:07:14.707Z,0
2023-04-10T02:11:14.374Z,0
2023-04-10T02:13:14.642Z,0
2023-04-10T02:15:18.234Z,0
2023-04-10T02:17:14.033Z,0
2023-04-10T02:19:17.979Z,0
2023-04-10T02:21:14.072Z,0
2023-04-10T02:23:14.976Z,0
2023-04-10T02:25:14.298Z,0
2023-04-10T02:27:14.215Z,0
2023-04-10T02:29:14.201Z,0
2023-04-10T02:31:14.599Z,0
2023-04-10T02:33:14.826Z,0
2023-04-10T02:35:18.115Z,0
2023-04-10T02:37:14.638Z,0
2023-04-10T02:39:14.351Z,0
2023-04-10T02:41:14.570Z,0
2023-04-10T02:43:18.330Z,0
2023-04-10T02:45:14.074Z,0
2023-04-10T02:47:14.816Z,0
2023-04-10T02:49:18.279Z,0
2023-04-10T02:51:14.025Z,0
2023-04-10T02:53:14.750Z,0
2023-04-10T02:55:18.440Z,0
2023-04-10T02:57:14.506Z,0
2023-04-10T02:59:14.625Z,0
2023-04-10T03:01:17.980Z,0
2023-04-10T03:03:14.099Z,0
2023-04-10T03:05:17.921Z,0
2023-04-10T03:07:17.674Z,0
2023-04-10T03:09:14.291Z,0
2023-04-10T03:11:17.886Z,0
2023-04-10T03:13:18.047Z,0
2023-04-10T03:15:14.188Z,0
2023-04-10T03:17:14.842Z,0
2023-04-10T03:19:14.025Z,0
2023-04-10T03:21:14.659Z,0
2023-04-10T03:23:19.126Z,0
2023-04-10T03:25:14.344Z,0
2023-04-10T03:27:14.486Z,0
2023-04-10T03:29:14.449Z,0
2023-04-10T03:31:14.537Z,0
2023-04-10T03:33:14.125Z,0
2023-04-10T03:35:14.715Z,0
2023-04-10T03:37:14.811Z,0
2023-04-10T03:39:14.376Z,0
2023-04-10T03:41:14.535Z,0
2023-04-10T03:43:14.391Z,0
2023-04-10T03:45:14.477Z,0
2023-04-10T03:47:18.127Z,0.1
2023-04-10T03:49:21.303Z,0
2023-04-10T03:51:14.476Z,0.1
2023-04-10T03:53:18.089Z,0.1
2023-04-10T03:55:14.380Z,0.1
2023-04-10T03:57:14.960Z,0.2
2023-04-10T03:59:14.482Z,0.2
2023-04-10T04:01:14.752Z,0.3
2023-04-10T04:03:14.787Z,0.4
2023-04-10T04:05:15.060Z,0.7
2023-04-10T04:07:14.690Z,1
2023-04-10T04:09:15.036Z,1.4
2023-04-10T04:13:14.990Z,3.2
2023-04-10T04:15:15.030Z,4.7
2023-04-10T04:17:14.045Z,6.7
2023-04-10T04:19:14.504Z,10
2023-04-10T04:21:14.144Z,14.9
2023-04-10T04:23:18.202Z,21.1
2023-04-10T04:25:17.969Z,30
2023-04-10T04:27:14.330Z,40.4
2023-04-10T04:29:21.381Z,54.6
2023-04-10T04:31:14.737Z,70.1
2023-04-10T04:33:14.062Z,90
2023-04-10T04:35:14.507Z,115.6
2023-04-10T04:37:21.175Z,141.2
2023-04-10T04:39:14.922Z,172.4
2023-04-10T04:41:14.344Z,210.6
2023-04-10T04:45:14.617Z,284.3
2023-04-10T04:47:17.661Z,330.3
2023-04-10T04:49:14.388Z,383.8
2023-04-10T04:51:18.014Z,424.1
2023-04-10T04:53:18.085Z,492.7
2023-04-10T04:55:14.724Z,544.6
2023-04-10T04:57:14.721Z,601.8
2023-04-10T04:59:14.432Z,632.7
2023-04-10T05:01:14.269Z,699.2
2023-04-10T05:03:14.432Z,735.1
2023-04-10T05:07:18.060Z,854.1
2023-04-10T05:09:14.379Z,897.8
2023-04-10T05:13:14.510Z,1043.1
2023-04-10T05:15:14.797Z,1096.6
2023-04-10T05:17:14.113Z,1152.9
2023-04-10T05:19:14.633Z,1212
2023-04-10T05:21:14.439Z,1274.1
2023-04-10T05:23:17.627Z,1339.4
2023-04-10T05:25:14.704Z,1408.1
2023-04-10T05:27:14.199Z,1408.1
2023-04-10T05:29:14.293Z,1480.3
2023-04-10T05:31:14.155Z,1556.2
2023-04-10T05:33:17.114Z,1556.2
2023-04-10T05:35:14.041Z,1636
2023-04-10T05:37:17.944Z,1719.9
2023-04-10T05:39:18.006Z,1808
2023-04-10T05:41:21.171Z,1808
2023-04-10T05:43:21.180Z,1900.7
2023-04-10T05:45:14.304Z,1900.7
2023-04-10T05:49:15.097Z,2100.6
2023-04-10T05:51:14.445Z,2100.6
2023-04-10T05:53:21.267Z,2100.6
2023-04-10T05:55:17.722Z,2208.3
2023-04-10T05:57:14.799Z,2208.3
2023-04-10T05:59:14.933Z,2321.6
2023-04-10T06:01:14.500Z,2321.6
2023-04-10T06:03:14.700Z,2440.6
2023-04-10T06:05:15.086Z,2440.6
2023-04-10T06:07:14.350Z,2565.7
2023-04-10T06:09:14.875Z,2565.7
2023-04-10T06:11:14.622Z,2697.3
2023-04-10T06:13:21.214Z,2697.3
2023-04-10T06:15:14.680Z,2835.6
2023-04-10T06:17:18.117Z,2981
2023-04-10T06:19:15.031Z,2981
2023-04-10T06:21:14.302Z,4230.2
2023-04-10T06:23:14.084Z,6310.7
2023-04-10T06:25:14.977Z,6310.7
2023-04-10T06:27:14.830Z,6634.2
2023-04-10T06:29:14.475Z,6974.4
2023-04-10T06:31:17.771Z,6974.4
2023-04-10T06:33:14.489Z,6974.4
2023-04-10T06:35:21.311Z,7332
2023-04-10T06:37:17.747Z,8103.1
2023-04-10T06:39:14.354Z,8103.1
2023-04-10T06:41:15.114Z,8518.5
2023-04-10T06:43:14.226Z,7707.9
2023-04-10T06:45:17.890Z,7332
2023-04-10T06:47:14.575Z,8103.1
2023-04-10T06:49:14.192Z,8518.5
2023-04-10T06:51:14.379Z,8518.5
2023-04-10T06:53:15.113Z,10404.6
2023-04-10T06:55:14.430Z,8518.5
2023-04-10T06:57:14.052Z,9897.1
2023-04-10T06:59:14.484Z,10938
2023-04-10T07:01:14.338Z,12708.2
2023-04-10T07:03:14.698Z,12088.4
2023-04-10T07:05:17.841Z,12088.4
2023-04-10T07:07:14.084Z,12088.4
2023-04-10T07:09:14.097Z,12708.2
2023-04-10T07:11:14.784Z,13359.7
2023-04-10T07:13:15.002Z,14044.7
2023-04-10T07:15:18.104Z,14044.7
2023-04-10T07:17:14.073Z,7332
2023-04-10T07:19:14.764Z,4914.8
2023-04-10T07:21:14.051Z,4675.1
2023-04-10T07:23:17.825Z,4675.1
2023-04-10T07:25:18.005Z,4675.1
2023-04-10T07:27:15.450Z,4675.1
2023-04-10T07:29:14.316Z,4675.1
2023-04-10T07:31:14.754Z,4675.1
2023-04-10T07:33:15.150Z,4675.1
2023-04-10T07:35:18.105Z,4914.8
2023-04-10T07:37:18.119Z,4914.8
2023-04-10T07:39:14.379Z,5166.8
2023-04-10T07:41:14.485Z,5166.8
2023-04-10T07:43:14.086Z,5166.8
2023-04-10T07:45:14.809Z,5166.8
2023-04-10T07:47:18.125Z,5166.8
2023-04-10T07:49:18.250Z,5166.8
2023-04-10T07:51:14.652Z,5166.8
2023-04-10T07:53:14.804Z,5166.8
2023-04-10T07:55:18.204Z,5431.7
2023-04-10T07:57:14.056Z,5431.7
2023-04-10T07:59:14.980Z,5710.1
2023-04-10T08:01:14.854Z,5710.1
2023-04-10T08:03:14.747Z,5710.1
2023-04-10T08:05:17.656Z,6002.9
2023-04-10T08:07:21.239Z,6002.9
2023-04-10T08:13:14.241Z,6634.2
2023-04-10T08:15:14.749Z,6634.2
2023-04-10T08:17:14.393Z,6634.2
2023-04-10T08:19:14.362Z,6974.4
2023-04-10T08:21:18.117Z,6974.4
2023-04-10T08:23:20.133Z,6974.4
2023-04-10T08:25:18.239Z,7332
2023-04-10T08:27:14.109Z,6974.4
2023-04-10T08:29:21.279Z,6974.4
2023-04-10T08:31:14.119Z,6974.4
2023-04-10T08:33:17.921Z,6634.2
2023-04-10T08:35:14.881Z,6974.4
2023-04-10T08:39:14.067Z,7332
2023-04-10T08:41:14.704Z,7332
2023-04-10T08:43:14.812Z,7332
2023-04-10T08:45:18.045Z,7707.9
2023-04-10T08:47:14.808Z,7707.9
2023-04-10T08:49:14.830Z,7707.9
2023-04-10T08:51:19.952Z,7707.9
2023-04-10T08:53:14.653Z,8103.1
2023-04-10T08:57:18.069Z,7707.9
2023-04-10T08:59:18.133Z,8103.1
2023-04-10T09:01:17.839Z,8518.5
2023-04-10T09:03:15.107Z,8103.1
2023-04-10T09:05:14.100Z,8103.1
2023-04-10T09:07:14.066Z,8103.1
2023-04-10T09:09:14.334Z,8103.1
2023-04-10T09:11:14.190Z,8103.1
2023-04-10T09:13:14.083Z,8103.1
2023-04-10T09:15:14.710Z,8103.1
2023-04-10T09:17:14.531Z,8103.1
2023-04-10T09:19:14.384Z,8103.1
2023-04-10T09:21:14.124Z,8103.1
2023-04-10T09:23:14.227Z,8103.1
2023-04-10T09:25:14.200Z,8103.1
2023-04-10T09:27:14.295Z,8103.1
2023-04-10T09:29:14.600Z,8103.1
2023-04-10T09:31:14.222Z,8103.1
2023-04-10T09:33:14.876Z,8103.1
2023-04-10T09:35:14.946Z,8518.5
2023-04-10T09:37:17.961Z,8955.3
2023-04-10T09:39:18.109Z,8955.3
2023-04-10T09:41:14.794Z,8518.5
2023-04-10T09:43:14.076Z,8955.3
2023-04-10T09:45:14.569Z,8955.3
2023-04-10T09:47:15.280Z,8955.3
2023-04-10T09:49:14.842Z,8955.3
2023-04-10T09:51:14.224Z,8955.3
2023-04-10T09:53:14.448Z,8518.5
2023-04-10T09:55:14.764Z,8955.3
2023-04-10T09:57:14.223Z,8518.5
2023-04-10T09:59:14.551Z,8518.5
2023-04-10T10:01:14.979Z,8518.5
2023-04-10T10:03:14.927Z,8955.3
2023-04-10T10:07:14.755Z,8955.3
2023-04-10T10:09:14.604Z,8955.3
2023-04-10T10:11:17.969Z,8955.3
2023-04-10T10:13:18.104Z,8955.3
2023-04-10T10:15:18.077Z,8955.3
2023-04-10T10:17:17.772Z,8955.3
2023-04-10T10:21:14.752Z,9414.4
2023-04-10T10:23:14.909Z,8955.3
2023-04-10T10:25:17.810Z,8955.3
2023-04-10T10:27:14.677Z,8955.3
2023-04-10T10:29:17.965Z,8955.3
2023-04-10T10:31:17.681Z,9414.4
2023-04-10T10:33:14.616Z,8955.3
2023-04-10T10:35:14.277Z,8955.3
2023-04-10T10:37:21.184Z,9414.4
2023-04-10T10:39:14.628Z,8955.3
2023-04-10T10:41:14.224Z,8955.3
2023-04-10T10:43:14.085Z,8955.3
2023-04-10T10:45:18.061Z,8518.5
2023-04-10T10:47:14.849Z,8518.5
2023-04-10T10:49:17.425Z,8955.3
2023-04-10T10:51:14.881Z,8955.3
2023-04-10T10:53:18.011Z,8518.5
2023-04-10T10:55:14.647Z,8518.5
2023-04-10T10:57:14.105Z,8955.3
2023-04-10T10:59:21.407Z,8518.5
2023-04-10T11:01:14.214Z,8955.3
2023-04-10T11:03:14.370Z,8955.3
2023-04-10T11:05:14.182Z,8955.3
2023-04-10T11:07:14.587Z,8955.3
2023-04-10T11:09:14.860Z,9414.4
2023-04-10T11:11:14.342Z,9414.4
2023-04-10T11:13:21.274Z,9414.4
2023-04-10T11:15:14.853Z,9414.4
2023-04-10T11:17:14.931Z,9414.4
2023-04-10T11:19:16.320Z,9414.4
2023-04-10T11:21:14.315Z,9897.1
2023-04-10T11:23:14.738Z,9897.1
2023-04-10T11:25:15.493Z,9897.1
2023-04-10T11:27:14.632Z,9897.1
2023-04-10T11:29:15.059Z,9414.4
2023-04-10T11:31:18.200Z,9414.4
2023-04-10T11:33:14.768Z,9897.1
2023-04-10T11:35:14.096Z,9414.4
2023-04-10T11:37:14.753Z,9897.1
2023-04-10T11:39:18.010Z,9897.1
2023-04-10T11:41:14.224Z,9897.1
2023-04-10T11:43:14.416Z,10404.6
2023-04-10T11:45:18.132Z,9897.1
2023-04-10T11:47:14.587Z,9897.1
2023-04-10T11:49:18.056Z,10404.6
2023-04-10T11:51:18.113Z,10938
2023-04-10T11:53:14.229Z,11498.8
2023-04-10T11:55:14.214Z,10938
2023-04-10T11:57:21.329Z,11498.8
2023-04-10T11:59:17.545Z,10938
2023-04-10T12:01:14.257Z,11498.8
2023-04-10T12:03:17.716Z,11498.8
2023-04-10T12:05:14.142Z,12088.4
2023-04-10T12:07:21.253Z,12088.4
2023-04-10T12:09:21.185Z,12088.4
2023-04-10T12:11:18.056Z,11498.8
2023-04-10T12:13:18.035Z,11498.8
2023-04-10T12:15:14.571Z,11498.8
2023-04-10T12:17:14.667Z,10938
2023-04-10T12:19:21.321Z,11498.8
2023-04-10T12:23:14.969Z,11498.8
2023-04-10T12:25:14.122Z,12088.4
2023-04-10T12:27:14.238Z,12088.4
2023-04-10T12:31:17.987Z,12088.4
2023-04-10T12:33:14.829Z,12088.4
2023-04-10T12:35:14.882Z,12088.4
2023-04-10T12:37:14.714Z,12088.4
2023-04-10T12:39:14.416Z,11498.8
2023-04-10T12:41:14.411Z,11498.8
2023-04-10T12:43:18.182Z,11498.8
2023-04-10T12:45:17.994Z,11498.8
2023-04-10T12:47:18.021Z,11498.8
2023-04-10T12:49:21.278Z,10938
2023-04-10T12:51:14.292Z,11498.8
2023-04-10T12:53:18.040Z,10938
2023-04-10T12:55:15.102Z,11498.8
2023-04-10T12:57:14.288Z,11498.8
2023-04-10T12:59:14.633Z,11498.8
2023-04-10T13:01:15.031Z,10938
2023-04-10T13:03:15.106Z,10938
2023-04-10T13:05:14.245Z,10404.6
2023-04-10T13:07:14.637Z,10404.6
2023-04-10T13:09:14.211Z,10938
2023-04-10T13:11:20.986Z,10404.6
2023-04-10T13:13:14.586Z,10404.6
2023-04-10T13:15:14.720Z,10938
2023-04-10T13:17:14.280Z,10404.6
2023-04-10T13:19:14.688Z,10404.6
2023-04-10T13:21:14.349Z,10938
2023-04-10T13:23:14.256Z,10404.6
2023-04-10T13:25:21.397Z,10404.6
2023-04-10T13:27:14.704Z,9897.1
2023-04-10T13:29:14.640Z,10404.6
2023-04-10T13:31:14.302Z,10404.6
2023-04-10T13:33:18.140Z,9897.1
2023-04-10T13:35:21.250Z,9897.1
2023-04-10T13:37:14.841Z,10404.6
2023-04-10T13:39:14.577Z,9414.4
2023-04-10T13:43:14.940Z,8955.3
2023-04-10T13:45:14.994Z,8518.5
2023-04-10T13:47:14.276Z,8955.3
2023-04-10T13:49:14.748Z,8955.3
2023-04-10T13:51:14.625Z,8518.5
2023-04-10T13:53:18.247Z,8518.5
2023-04-10T13:55:14.457Z,8518.5
2023-04-10T13:57:15.336Z,8518.5
2023-04-10T13:59:18.226Z,8518.5
2023-04-10T14:01:15.040Z,8518.5
2023-04-10T14:03:14.503Z,8103.1
2023-04-10T14:05:21.431Z,8103.1
2023-04-10T14:07:14.983Z,8103.1
2023-04-10T14:09:21.484Z,8103.1
2023-04-10T14:11:18.431Z,8103.1
2023-04-10T14:13:14.868Z,8103.1
2023-04-10T14:15:14.860Z,8103.1
2023-04-10T14:17:15.045Z,8103.1
2023-04-10T14:19:14.258Z,8103.1
2023-04-10T14:21:14.489Z,7332
2023-04-10T14:23:17.779Z,7332
2023-04-10T14:25:15.877Z,7707.9
2023-04-10T14:27:14.680Z,7707.9
2023-04-10T14:29:14.807Z,7332
2023-04-10T14:31:14.398Z,7332
2023-04-10T14:33:14.630Z,7707.9
2023-04-10T14:35:18.156Z,6974.4
2023-04-10T14:37:15.616Z,6974.4
2023-04-10T14:39:15.031Z,6974.4
2023-04-10T14:41:18.308Z,6634.2
2023-04-10T14:43:18.042Z,6634.2
2023-04-10T14:45:14.802Z,6974.4
2023-04-10T14:47:21.358Z,6974.4
2023-04-10T14:49:21.441Z,6974.4
2023-04-10T14:51:18.315Z,6974.4
2023-04-10T14:53:21.503Z,6974.4
2023-04-10T14:55:14.228Z,6974.4
2023-04-10T14:57:14.984Z,7332
2023-04-10T14:59:14.249Z,6974.4
2023-04-10T15:01:14.449Z,6974.4
2023-04-10T15:03:14.255Z,6974.4
2023-04-10T15:05:14.654Z,6974.4
2023-04-10T15:07:14.746Z,6634.2
2023-04-10T15:09:19.212Z,6634.2
2023-04-10T15:11:21.390Z,6310.7
2023-04-10T15:13:18.171Z,6310.7
2023-04-10T15:17:14.831Z,6002.9
2023-04-10T15:19:18.189Z,6634.2
2023-04-10T15:21:14.205Z,6310.7
2023-04-10T15:23:21.163Z,6310.7
2023-04-10T15:25:20.936Z,6310.7
2023-04-10T15:29:14.329Z,6002.9
2023-04-10T15:31:21.347Z,5710.1
2023-04-10T15:33:14.761Z,5710.1
2023-04-10T15:35:18.202Z,5710.1
2023-04-10T15:37:14.823Z,5431.7
2023-04-10T15:39:14.879Z,5431.7
2023-04-10T15:41:14.879Z,5166.8
2023-04-10T15:43:21.509Z,4914.8
2023-04-10T15:45:15.031Z,4914.8
2023-04-10T15:47:14.165Z,5166.8
2023-04-10T15:49:18.301Z,5166.8
2023-04-10T15:51:17.723Z,5166.8
2023-04-10T15:53:14.141Z,4914.8
2023-04-10T15:55:23.615Z,5166.8
2023-04-10T15:57:14.866Z,5166.8
2023-04-10T15:59:14.716Z,5166.8
2023-04-10T16:01:14.266Z,4914.8
2023-04-10T16:03:18.243Z,4914.8
2023-04-10T16:05:14.648Z,4675.1
2023-04-10T16:07:14.896Z,4447.1
2023-04-10T16:09:24.596Z,4230.2
2023-04-10T16:11:14.506Z,4230.2
2023-04-10T16:13:14.736Z,4023.9
2023-04-10T16:15:15.026Z,3641
2023-04-10T16:17:14.869Z,3463.4
2023-04-10T16:19:14.928Z,3294.5
2023-04-10T16:21:14.624Z,3133.8
2023-04-10T16:23:21.063Z,3133.8
2023-04-10T16:25:14.233Z,3133.8
2023-04-10T16:27:14.197Z,3133.8
2023-04-10T16:29:14.269Z,3133.8
2023-04-10T16:31:14.338Z,2981
2023-04-10T16:33:14.942Z,2835.6
2023-04-10T16:35:18.305Z,2835.6
2023-04-10T16:39:14.928Z,2565.7
2023-04-10T16:41:14.353Z,2440.6
2023-04-10T16:43:15.179Z,2321.6
2023-04-10T16:45:15.246Z,2208.3
2023-04-10T16:47:14.979Z,2100.6
2023-04-10T16:49:15.086Z,1900.7
2023-04-10T16:51:14.363Z,1808
2023-04-10T16:53:14.427Z,1636
2023-04-10T16:55:15.198Z,1480.3
2023-04-10T16:57:14.987Z,1408.1
2023-04-10T16:59:14.571Z,1274.1
2023-04-10T17:01:14.506Z,1212
2023-04-10T17:03:18.115Z,1152.9
2023-04-10T17:05:14.758Z,1043.1
2023-04-10T17:07:14.626Z,992.3
2023-04-10T17:09:15.079Z,943.9
2023-04-10T17:11:14.595Z,897.8
2023-04-10T17:13:14.820Z,812.4
2023-04-10T17:15:14.915Z,699.2
2023-04-10T17:17:14.390Z,632.7
2023-04-10T17:19:17.596Z,572.5
2023-04-10T17:21:14.446Z,544.6
2023-04-10T17:23:14.875Z,492.7
2023-04-10T17:25:14.640Z,468.7
2023-04-10T17:27:18.152Z,424.1
2023-04-10T17:29:14.928Z,383.8
2023-04-10T17:31:15.092Z,347.2
2023-04-10T17:33:14.204Z,298.9
2023-04-10T17:35:14.757Z,270.4
2023-04-10T17:37:18.114Z,232.8
2023-04-10T17:39:14.906Z,210.6
2023-04-10T17:41:18.233Z,181.3
2023-04-10T17:43:15.030Z,164
2023-04-10T17:47:17.628Z,121.5
2023-04-10T17:49:14.809Z,104.6
2023-04-10T17:51:14.582Z,90
2023-04-10T17:53:14.764Z,73.7
2023-04-10T17:55:14.674Z,60.3
2023-04-10T17:57:14.819Z,51.9
2023-04-10T17:59:14.804Z,44.7
2023-04-10T18:01:17.897Z,38.5
2023-04-10T18:03:14.239Z,33.1
2023-04-10T18:05:18.236Z,31.5
2023-04-10T18:07:14.211Z,23.3
2023-04-10T18:09:18.204Z,16.4
2023-04-10T18:11:15.066Z,12.8
2023-04-10T18:13:14.580Z,9.5
2023-04-10T18:15:14.180Z,7
2023-04-10T18:17:14.518Z,5
2023-04-10T18:19:15.032Z,3.5
2023-04-10T18:21:14.511Z,2.5
2023-04-10T18:23:14.301Z,1.7
2023-04-10T18:25:15.325Z,1.2
2023-04-10T18:27:14.449Z,0.8
2023-04-10T18:29:18.168Z,0.6
2023-04-10T18:31:14.952Z,0.4
2023-04-10T18:33:14.336Z,0.3
2023-04-10T18:35:14.899Z,0.2
2023-04-10T18:37:14.267Z,0.2
2023-04-10T18:39:14.262Z,0.1
2023-04-10T18:41:14.982Z,0
2023-04-10T18:43:18.233Z,0
2023-04-10T18:45:14.884Z,0
2023-04-10T18:47:18.027Z,0
2023-04-10T18:49:18.088Z,0
2023-04-10T18:51:18.257Z,1
2023-04-10T18:53:14.924Z,1
2023-04-10T18:55:14.422Z,1
2023-04-10T18:57:14.965Z,1
2023-04-10T18:59:14.423Z,1
2023-04-10T19:01:21.468Z,1
2023-04-10T19:03:14.804Z,1
2023-04-10T19:05:14.889Z,1
2023-04-10T19:07:14.912Z,1
2023-04-10T19:09:14.588Z,1
2023-04-10T19:11:18.288Z,1
2023-04-10T19:13:14.193Z,1
2023-04-10T19:15:14.872Z,1
2023-04-10T19:17:14.915Z,1
2023-04-10T19:19:21.461Z,1
2023-04-10T19:21:18.087Z,1
2023-04-10T19:23:14.711Z,1
2023-04-10T19:25:18.152Z,1
2023-04-10T19:27:21.302Z,1
2023-04-10T19:29:14.855Z,1
2023-04-10T19:31:21.356Z,1
2023-04-10T19:33:14.179Z,1
2023-04-10T19:35:18.267Z,1
2023-04-10T19:37:18.214Z,1
2023-04-10T19:39:14.480Z,1
2023-04-10T19:41:14.187Z,1
2023-04-10T19:43:14.898Z,1
2023-04-10T19:45:18.339Z,1
2023-04-10T19:47:15.313Z,1
2023-04-10T19:49:14.327Z,1
2023-04-10T19:51:14.592Z,1
2023-04-10T19:53:18.274Z,1
2023-04-10T19:55:19.074Z,1
2023-04-10T19:57:15.392Z,1
2023-04-10T19:59:14.357Z,1
2023-04-10T20:01:15.174Z,1
2023-04-10T20:03:15.265Z,1
2023-04-10T20:05:14.886Z,1
2023-04-10T20:07:17.503Z,1
2023-04-10T20:09:17.672Z,1
2023-04-10T20:11:14.748Z,1
2023-04-10T20:13:14.447Z,1
2023-04-10T20:15:14.968Z,1
2023-04-10T20:17:14.774Z,1
2023-04-10T20:19:14.833Z,1
2023-04-10T20:21:18.109Z,1
2023-04-10T20:23:18.277Z,1
2023-04-10T20:25:15.152Z,1
2023-04-10T20:27:14.946Z,1
2023-04-10T20:31:14.999Z,1
2023-04-10T20:33:14.336Z,1
2023-04-10T20:35:14.910Z,1
2023-04-10T20:37:14.969Z,1
2023-04-10T20:39:14.709Z,1
2023-04-10T20:41:15.017Z,1
2023-04-10T20:43:14.816Z,1
2023-04-10T20:45:14.978Z,1
2023-04-10T20:47:15.007Z,1
2023-04-10T20:49:15.139Z,1
2023-04-10T20:51:18.219Z,1
2023-04-10T20:53:14.933Z,1
2023-04-10T20:55:18.424Z,1
2023-04-10T20:57:14.688Z,1
2023-04-10T20:59:14.389Z,1
2023-04-10T21:01:14.420Z,1
2023-04-10T21:03:15.332Z,1
2023-04-10T21:05:14.931Z,1
2023-04-10T21:07:14.870Z,1
2023-04-10T21:09:14.823Z,1
2023-04-10T21:11:15.134Z,1
2023-04-10T21:13:14.533Z,1
2023-04-10T21:15:15.108Z,1
2023-04-10T21:17:14.388Z,1
2023-04-10T21:19:14.834Z,1
2023-04-10T21:21:14.577Z,1
2023-04-10T21:23:14.765Z,1
2023-04-10T21:25:14.790Z,1
2023-04-10T21:27:21.140Z,1
2023-04-10T21:29:14.300Z,1
2023-04-10T21:31:14.996Z,1
2023-04-10T21:33:14.460Z,1
2023-04-10T21:35:14.898Z,1
2023-04-10T21:37:18.289Z,1
2023-04-10T21:39:14.945Z,1
2023-04-10T21:41:15.018Z,1
2023-04-10T21:43:14.436Z,1
2023-04-10T21:45:20.908Z,1
2023-04-10T21:47:21.273Z,1
2023-04-10T21:49:15.089Z,1
2023-04-10T21:51:18.298Z,1
2023-04-10T21:53:14.475Z,1
2023-04-10T21:55:14.366Z,1
2023-04-10T21:57:18.253Z,1
2023-04-10T21:59:21.418Z,1
2023-04-10T22:01:14.443Z,1
2023-04-10T22:03:14.397Z,1
2023-04-10T22:05:18.270Z,1
2023-04-10T22:07:18.141Z,1
2023-04-10T22:09:18.321Z,1
2023-04-10T22:11:14.987Z,1
2023-04-10T22:13:27.924Z,1
2023-04-10T22:15:18.173Z,1
2023-04-10T22:17:14.293Z,1
2023-04-10T22:19:18.339Z,1
2023-04-10T22:21:21.435Z,1
2023-04-10T22:23:15.025Z,1
2023-04-10T22:25:18.268Z,1
2023-04-10T22:27:14.779Z,1
2023-04-10T22:29:14.250Z,1
2023-04-10T22:31:18.206Z,1
2023-04-10T22:33:18.114Z,1
2023-04-10T22:35:14.404Z,1
2023-04-10T22:37:18.069Z,1
2023-04-10T22:39:14.220Z,1
2023-04-10T22:41:15.020Z,1
2023-04-10T22:43:14.813Z,1
2023-04-10T22:45:15.190Z,1
2023-04-10T22:49:14.831Z,1
2023-04-10T22:51:18.229Z,1
2023-04-10T22:53:14.855Z,1
2023-04-10T22:55:18.404Z,1
2023-04-10T22:57:15.050Z,1
2023-04-10T23:01:18.301Z,1
2023-04-10T23:03:14.900Z,1
2023-04-10T23:05:17.837Z,1
2023-04-10T23:07:14.851Z,1
2023-04-10T23:09:17.817Z,1
2023-04-10T23:11:14.570Z,1
2023-04-10T23:13:14.801Z,1
2023-04-10T23:15:18.266Z,1
2023-04-10T23:17:14.638Z,1
2023-04-10T23:19:15.160Z,1
2023-04-10T23:21:14.987Z,1
2023-04-10T23:23:14.271Z,1
2023-04-10T23:25:19.453Z,1
2023-04-10T23:27:14.223Z,1
2023-04-10T23:29:15.002Z,1
2023-04-10T23:31:14.567Z,1
2023-04-10T23:33:14.948Z,1
2023-04-10T23:35:14.439Z,1
2023-04-10T23:37:14.937Z,1
2023-04-10T23:39:14.331Z,1
2023-04-10T23:41:14.293Z,1
2023-04-10T23:43:14.418Z,1
2023-04-10T23:45:21.442Z,1
2023-04-10T23:47:18.270Z,1
2023-04-10T23:49:14.700Z,1
2023-04-10T23:51:14.440Z,1
2023-04-10T23:53:15.123Z,1
2023-04-10T23:55:14.412Z,1
2023-04-10T23:57:14.258Z,1
2023-04-10T23:59:21.409Z,1
